createdAt,value
2023-05-21T00:01:20.433Z,3.08
2023-05-21T00:12:13.314Z,3.08
2023-05-21T00:23:06.349Z,3.08
2023-05-21T00:34:00.768Z,3.07
2023-05-21T00:44:37.403Z,3.06
2023-05-21T00:55:37.931Z,3.06
2023-05-21T01:06:35.176Z,3.06
2023-05-21T01:17:13.486Z,3.05
2023-05-21T01:28:11.548Z,3.05
2023-05-21T01:38:50.300Z,3.05
2023-05-21T01:49:27.807Z,3.04
2023-05-21T02:00:14.327Z,3.03
2023-05-21T02:10:52.501Z,3.03
2023-05-21T02:21:33.061Z,3.02
2023-05-21T02:32:29.372Z,3.02
2023-05-21T02:43:21.825Z,3.02
2023-05-21T02:54:19.329Z,3.02
2023-05-21T03:05:14.388Z,3.02
2023-05-21T03:16:09.624Z,3.02
2023-05-21T03:27:04.986Z,3.02
2023-05-21T03:38:04.483Z,3.02
2023-05-21T03:49:01.918Z,3.02
2023-05-21T04:00:00.372Z,3.03
2023-05-21T04:10:38.529Z,3.03
2023-05-21T04:21:34.604Z,3.06
2023-05-21T04:32:12.354Z,3.05
2023-05-21T04:43:07.874Z,3.07
2023-05-21T04:54:05.585Z,3.09
2023-05-21T05:05:02.097Z,3.09
2023-05-21T05:15:40.949Z,3.10
2023-05-21T05:26:37.317Z,3.15
2023-05-21T05:37:34.728Z,3.19
2023-05-21T05:48:33.380Z,3.25
2023-05-21T05:59:30.826Z,3.25
2023-05-21T06:10:27.030Z,3.25
2023-05-21T06:21:16.368Z,3.28
2023-05-21T06:32:04.785Z,3.32
2023-05-21T06:42:46.497Z,3.33
2023-05-21T06:53:23.643Z,3.36
2023-05-21T07:04:12.264Z,3.38
2023-05-21T07:15:08.872Z,3.33
2023-05-21T07:25:54.936Z,3.32
2023-05-21T07:36:45.833Z,3.33
2023-05-21T07:47:37.176Z,3.33
2023-05-21T07:58:26.658Z,3.32
2023-05-21T08:09:17.671Z,3.34
2023-05-21T08:20:12.621Z,3.34
2023-05-21T08:30:55.233Z,3.34
2023-05-21T08:41:38.616Z,3.35
2023-05-21T08:52:34.764Z,3.34
2023-05-21T09:03:30.673Z,3.34
2023-05-21T09:14:03.610Z,3.34
2023-05-21T09:24:56.872Z,3.34
2023-05-21T09:35:52.649Z,3.35
2023-05-21T09:46:42.725Z,3.34
2023-05-21T09:57:33.010Z,3.34
2023-05-21T10:08:30.307Z,3.34
2023-05-21T10:19:06.184Z,3.34
2023-05-21T10:29:49.814Z,3.36
2023-05-21T10:40:42.126Z,3.34
2023-05-21T10:51:21.986Z,3.34
2023-05-21T11:01:56.728Z,3.36
2023-05-21T11:12:37.543Z,3.37
2023-05-21T11:23:34.190Z,3.36
2023-05-21T11:34:20.443Z,3.34
2023-05-21T11:45:09.083Z,3.43
2023-05-21T11:55:55.660Z,3.44
2023-05-21T12:06:54.268Z,3.44
2023-05-21T12:17:43.462Z,3.34
2023-05-21T12:28:33.695Z,3.41
2023-05-21T12:39:32.073Z,3.34
2023-05-21T12:50:32.501Z,3.35
2023-05-21T13:01:22.741Z,3.34
2023-05-21T13:11:59.031Z,3.35
2023-05-21T13:22:47.338Z,3.36
2023-05-21T13:33:29.754Z,3.36
2023-05-21T13:44:23.533Z,3.36
2023-05-21T13:55:19.071Z,3.36
2023-05-21T14:06:18.770Z,3.36
2023-05-21T14:17:18.596Z,3.35
2023-05-21T14:28:16.392Z,3.36
2023-05-21T14:39:15.382Z,3.36
2023-05-21T14:50:16.013Z,3.37
2023-05-21T15:01:12.779Z,3.35
2023-05-21T15:12:07.698Z,3.36
2023-05-21T15:23:15.317Z,3.36
2023-05-21T15:33:45.690Z,3.36
2023-05-21T15:44:26.764Z,3.39
2023-05-21T15:55:10.917Z,3.39
2023-05-21T16:06:09.245Z,3.38
2023-05-21T16:17:09.517Z,3.36
2023-05-21T16:28:07.550Z,3.37
2023-05-21T16:39:05.875Z,3.36
2023-05-21T16:50:04.658Z,3.36
2023-05-21T17:01:04.322Z,3.37
2023-05-21T17:12:03.519Z,3.37
2023-05-21T17:22:58.870Z,3.37
2023-05-21T17:33:49.421Z,3.40
2023-05-21T17:44:46.220Z,3.39
2023-05-21T17:55:46.210Z,3.37
2023-05-21T18:06:41.963Z,3.35
2023-05-21T18:17:39.359Z,3.34
2023-05-21T18:28:33.402Z,3.33
2023-05-21T18:39:32.904Z,3.32
2023-05-21T18:50:31.874Z,3.31
2023-05-21T19:01:05.586Z,3.29
2023-05-21T19:12:00.927Z,3.28
2023-05-21T19:22:59.345Z,3.28
2023-05-21T19:33:54.818Z,3.27
2023-05-21T19:44:46.543Z,3.26
2023-05-21T19:55:42.315Z,3.26
2023-05-21T20:06:40.232Z,3.25
2023-05-21T20:17:36.666Z,3.25
2023-05-21T20:28:36.388Z,3.25
2023-05-21T20:39:32.287Z,3.24
2023-05-21T20:50:31.825Z,3.23
2023-05-21T21:01:26.677Z,3.23
2023-05-21T21:12:26.588Z,3.22
2023-05-21T21:23:22.634Z,3.22
2023-05-21T21:34:23.225Z,3.21
2023-05-21T21:45:22.662Z,3.21
2023-05-21T21:56:15.324Z,3.20
2023-05-21T22:07:16.090Z,3.20
2023-05-21T22:18:20.379Z,3.19
2023-05-21T22:29:20.680Z,3.19
2023-05-21T22:40:21.597Z,3.19
2023-05-21T22:51:20.729Z,3.18
2023-05-21T23:02:20.797Z,3.18
2023-05-21T23:13:21.665Z,3.18
2023-05-21T23:24:22.775Z,3.17
2023-05-21T23:35:23.659Z,3.17
2023-05-21T23:46:25.393Z,3.17
2023-05-21T23:57:22.345Z,3.16
